TAX09MF LGSK-LDSP
Flight info
| Callsign | TAX09MF |
|---|---|
| Flight time | N/A |
| Altitude | 20000 |
| Route | TSL DCT TALAS N130 MAVAR/N0443F380 DCT INLOT DCT TIBRI DCT SIPAL |
| Aircraft | A320/M-SDE3FGHIRWY/LB1 |
Departure
| Time | 2026-04-25 12:41 |
|---|---|
| Airport | Skiathos Island National Airport (LGSK) |
Arrival
| Time | N/A |
|---|---|
| Airport | Split Saint Jerome Airport (LDSP) |
| Time | Latitude | Longitude | Altitude | Speed | Heading |
|---|---|---|---|---|---|
| 2026-04-25 12:24 | 39.17950 | 23.50254 | 40 ft | 0 kts | 289° |
| 2026-04-25 12:33 | 39.17949 | 23.50256 | 39 ft | 1 kts | 289° |
| 2026-04-25 12:33 | 39.17944 | 23.50276 | 39 ft | 3 kts | 286° |
| 2026-04-25 12:33 | 39.17939 | 23.50301 | 37 ft | 3 kts | 278° |
| 2026-04-25 12:34 | 39.17937 | 23.50327 | 37 ft | 3 kts | 261° |
| 2026-04-25 12:34 | 39.17943 | 23.50348 | 38 ft | 3 kts | 215° |
| 2026-04-25 12:34 | 39.17948 | 23.50353 | 39 ft | 1 kts | 199° |
| 2026-04-25 12:36 | 39.17947 | 23.50352 | 39 ft | 1 kts | 199° |
| 2026-04-25 12:36 | 39.17911 | 23.50337 | 39 ft | 9 kts | 198° |
| 2026-04-25 12:37 | 39.17841 | 23.50308 | 39 ft | 12 kts | 201° |
| 2026-04-25 12:37 | 39.17795 | 23.50286 | 39 ft | 7 kts | 199° |
| 2026-04-25 12:37 | 39.17759 | 23.50270 | 39 ft | 2 kts | 198° |
| 2026-04-25 12:37 | 39.17738 | 23.50265 | 39 ft | 4 kts | 180° |
| 2026-04-25 12:38 | 39.17703 | 23.50314 | 40 ft | 12 kts | 114° |
| 2026-04-25 12:38 | 39.17659 | 23.50343 | 41 ft | 8 kts | 189° |
| 2026-04-25 12:38 | 39.17562 | 23.50303 | 40 ft | 20 kts | 199° |
| 2026-04-25 12:38 | 39.17419 | 23.50238 | 37 ft | 23 kts | 199° |
| 2026-04-25 12:39 | 39.17266 | 23.50176 | 27 ft | 25 kts | 197° |
| 2026-04-25 12:39 | 39.17210 | 23.50146 | 24 ft | 2 kts | 201° |
| 2026-04-25 12:39 | 39.17177 | 23.50132 | 22 ft | 8 kts | 198° |
| 2026-04-25 12:39 | 39.17113 | 23.50104 | 19 ft | 9 kts | 199° |
| 2026-04-25 12:40 | 39.17049 | 23.50049 | 14 ft | 9 kts | 218° |
| 2026-04-25 12:40 | 39.17031 | 23.50084 | 12 ft | 5 kts | 15° |
| 2026-04-25 12:40 | 39.17065 | 23.50082 | 16 ft | 6 kts | 11° |
| 2026-04-25 12:40 | 39.17078 | 23.50087 | 18 ft | 0 kts | 17° |
| 2026-04-25 12:41 | 39.17107 | 23.50099 | 19 ft | 28 kts | 19° |
| 2026-04-25 12:41 | 39.17585 | 23.50310 | 41 ft | 113 kts | 19° |
| 2026-04-25 12:41 | 39.18484 | 23.50719 | 391 ft | 146 kts | 19° |
| 2026-04-25 12:41 | 39.19458 | 23.51168 | 1262 ft | 152 kts | 20° |
| 2026-04-25 12:42 | 39.20503 | 23.51413 | 2024 ft | 158 kts | 360° |
| 2026-04-25 12:42 | 39.21271 | 23.51358 | 2162 ft | 174 kts | 359° |
| 2026-04-25 12:42 | 39.23017 | 23.51255 | 2504 ft | 198 kts | 359° |
| 2026-04-25 12:42 | 39.24410 | 23.51178 | 2985 ft | 203 kts | 359° |
| 2026-04-25 12:43 | 39.25897 | 23.51096 | 3302 ft | 225 kts | 359° |
| 2026-04-25 12:43 | 39.27550 | 23.51006 | 3722 ft | 249 kts | 359° |
| 2026-04-25 12:43 | 39.31122 | 23.50804 | 5420 ft | 263 kts | 359° |
| 2026-04-25 12:44 | 39.32967 | 23.50695 | 6317 ft | 268 kts | 359° |
| 2026-04-25 12:44 | 39.34824 | 23.50586 | 7141 ft | 273 kts | 359° |
| 2026-04-25 12:44 | 39.38670 | 23.50368 | 8837 ft | 281 kts | 359° |
| 2026-04-25 12:45 | 39.40636 | 23.50255 | 9677 ft | 285 kts | 358° |
| 2026-04-25 12:45 | 39.42617 | 23.49775 | 10304 ft | 300 kts | 344° |